AirNav   TITAN Aviation Fuels
 
 1448 users online  

1CL1 Little Buttes Antique Airfield
Lancaster, California, USA

GOING TO LANCASTER?


FAA INFORMATION EFFECTIVE 02 DECEMBER 2021

Location

FAA Identifier: 1CL1
Lat/Long: 34-47-38.9290N 118-16-39.2770W
34-47.648817N 118-16.654617W
34.7941469,-118.2775769
(estimated)
Elevation: 2433 ft. / 742 m (estimated)
Variation: 14E (1985)
From city: 14 miles NW of LANCASTER, CA
Time zone: UTC -8 (UTC -7 during Daylight Saving Time)
Zip code: 93536

Airport Operations

Airport use: Private use. Permission required prior to landing
Activation date: 03/1988
Control tower: no
ARTCC: LOS ANGELES CENTER
FSS: RIVERSIDE FLIGHT SERVICE STATION
Attendance: CONTINUOUS
Wind indicator: yes
Segmented circle: yes

Airport Communications

WX ASOS at WJF (4 nm SE): PHONE 661-949-2840
WX ASOS at PMD (14 nm SE): PHONE 661-272-3798
WX AWOS-3 at MHV (17 nm N): 132.225 (661-824-5218)

Nearby radio navigation aids

VOR radial/distance  VOR name  Freq  Var
PMDr298/14.4PALMDALE VORTAC114.5015E
LHSr051/16.2LAKE HUGHES VORTAC114.3515E
GMNr075/28.8GORMAN VORTAC116.1016E
EDWr235/29.1EDWARDS VORTAC116.4012E
VNYr002/35.8VAN NUYS VOR/DME113.1015E
FIMr034/39.7FILLMORE VORTAC112.5015E

Airport Services

Runway Information

Runway 6/24

Dimensions: 2900 x 80 ft. / 884 x 24 m
Surface: turf
RUNWAY 6  RUNWAY 24
Traffic pattern: leftright
Displaced threshold: 200 ft.500 ft.
Obstructions: none25 ft. pline, 5 ft. from runway

Airport Ownership and Management from official FAA records

Ownership: Privately-owned
Owner: P&B SCHULTZ AND J&E PATTERSON
8150 WEST AVENUE B-10
LANCASTER, CA 93536-2043
Phone 661-948-0577
Manager: BARBARA SCHULTZ
8150 WEST AVENUE B-10
LANCASTER, CA 93536-2043
Phone 661-948-0577

Airport Operational Statistics

Aircraft based on the field: 11
Single engine airplanes: 8
Multi engine airplanes: 1
Gliders airplanes: 1
Ultralights: 1
    
Aircraft operations: 100/year
100% local general aviation

Additional Remarks

FOR CD CTC JOSHUA APCH AT 661-277-3843.

Instrument Procedures

There are no published instrument procedures at 1CL1.

Some nearby airports with instrument procedures:

KWJF - General Wm J Fox Airfield (4 nm SE)
KPMD - Palmdale USAF Plant 42 Airport (14 nm SE)
KMHV - Mojave Air and Space Port (17 nm N)
KEDW - Edwards Air Force Base (20 nm E)
L71 - California City Municipal Airport (25 nm NE)
 
Loc | Ops | Rwys | IFR | FBO | Links
Com | Nav | Svcs | Stats | Notes
Area around 1CL1 (Little Buttes Antique Airfield)
 
Road maps at: MapQuest Bing Google
 
Aerial photo
WARNING: Photo may not be current or correct
Aerial photo of 1CL1 (Little Buttes Antique Airfield)
Taken in March 2008

Do you have a better or more recent aerial photo of Little Buttes Antique Airfield that you would like to share? If so, please send us your photo.

 
Sectional chart

 
Airport distance calculator
Flying to Little Buttes Antique Airfield? Find the distance to fly.

From to 1CL1

Sunrise and sunset
Times for 06-Dec-2021
 Local
(UTC-8)
 Zulu
(UTC)
Morning civil twilight06:2014:20
Sunrise06:4814:48
Sunset16:4100:41
Evening civil twilight17:0901:09

Current date and time
Zulu (UTC)  06-Dec-2021 17:23:07
Local (UTC-8)  06-Dec-2021 09:23:07
 
METAR
KWJF 
6nm SE 
061656Z 00000KT 10SM CLR 08/M07 A3015 RMK AO2 SLP215 T00781072 $
KPMD 
14nm SE 
061653Z 00000KT 10SM CLR 11/M08 A3014 RMK AO2 SLP202 T01061078
KMHV 
18nm N 
061640Z AUTO 00000KT 10SM CLR 10/M09 A3014 RMK A01
TAF
KWJF 
6nm SE 
060531Z 0606/0706 VRB03KT P6SM SKC FM062200 25012KT P6SM SKC
KPMD 
14nm SE 
061146Z 0612/0712 VRB05KT P6SM SKC FM062300 24012KT P6SM SCT250
NOTAMs
Click for the latest NOTAMs
NOTAMs are issued by the DoD/FAA and will open in a separate window not controlled by AirNav.

 

 
 

Would you like to see your business listed on this page?

 If your business provides an interesting product or service to pilots, flight crews, aircraft, or users of the Little Buttes Antique Airfield, you should consider listing it here.  To start the listing process, click on the button below
 
Add a business
 

Other Pages about Little Buttes Antique Airfield

Update a link
 
Copyright © AirNav, LLC. All rights reserved. Privacy Policy  Contact